Terminal Aerodrome Forecast
Issued by NWS

Home | Current Version | Previous Version | Text Only | Print | Product List | Glossary On
Versions: 1 2 3 4 5 6 7 8 9 10 11 12 13 14 15 16 17 18 19 20 21 22 23
000
FTUS43 KDVN 251900 AAA
TAFBRL
TAF AMD
KBRL 251902Z 2519/2618 04015G24KT P6SM BKN015 OVC025
      TEMPO 2519/2520 2SM -SN BR BKN012 OVC020
     FM252000 02014G24KT P6SM OVC025
     FM252100 01011G18KT P6SM BKN035
     FM260200 34004KT P6SM SCT250
     FM261500 18007KT P6SM SCT080 BKN180=

USA.gov is the U.S. government's official web portal to all federal, state and local government web resources and services.